Arikun — 3EKY2 — position and weather

sailwx.info

Track history (hours):
 
Tides and Currents Weather Stations Pressure Air Temp Water Temp Dewpoint Dewpoint Depression Visibility Wind Speed Wind Dir Waves Ship Positions

Arikun

Last reported at 2018-Feb-18 05:19 UTC. Time now 2018-Feb-22 21:08 UTC.
Position N 25°32' E 121°04'.

Length 112 m; draft 5.1 m.

Type: Cargo ship. MMSI: 372870000.

Date/timePositionNaut miles runAvg speedWind from/ knotsBaromVisibWave heightAir tempDewpointWater temp
2018-Feb-18 05:19N 25°32' E 121°04'410.4
2018-Feb-18 04:57N 25°30' E 121°00'6 9.4
2018-Feb-18 04:21N 25°25' E 120°57'3 9.4
2018-Feb-18 04:00N 25°22' E 120°55'120 8.8
2018-Feb-17 14:21N 23°35' E 119°54'610.8
2018-Feb-17 13:47N 23°29' E 119°53'412.2
2018-Feb-17 13:28N 23°26' E 119°53'2311.8
2018-Feb-17 11:34N 23°04' E 119°58'112.6
2018-Feb-17 11:29N 23°03' E 119°58'612.1
2018-Feb-17 11:00N 22°57' E 120°01'611.3
2018-Feb-17 10:30N 22°52' E 120°04'711.1
2018-Feb-17 09:55N 22°47' E 120°08'410.7
2018-Feb-17 09:30N 22°43' E 120°10'510.7
2018-Feb-17 09:00N 22°38' E 120°13'4 8.6
2018-Feb-17 08:31N 22°37' E 120°17'0 0.5
2018-Feb-17 08:00N 22°36' E 120°17'0 0.0
2018-Feb-17 07:30N 22°36' E 120°17'0 0.0
2018-Feb-17 07:00N 22°36' E 120°17'0 0.0
2018-Feb-17 06:30N 22°36' E 120°17'0 0.0
2018-Feb-17 06:00N 22°36' E 120°17'0 0.0
2018-Feb-17 05:30N 22°36' E 120°17'0 0.0
2018-Feb-17 05:00N 22°36' E 120°17'0 0.0
2018-Feb-17 04:30N 22°36' E 120°17'0 0.0
2018-Feb-17 04:00N 22°36' E 120°17'0 0.0
2018-Feb-17 03:30N 22°36' E 120°17'0 0.0
2018-Feb-17 03:01N 22°36' E 120°17'0 0.0
2018-Feb-17 02:30N 22°36' E 120°17'0 0.0
2018-Feb-17 02:00N 22°36' E 120°17'0 0.3
2018-Feb-17 01:30N 22°36' E 120°17'3 5.3
2018-Feb-17 01:00N 22°37' E 120°14'1 2.7
2018-Feb-17 00:30N 22°37' E 120°13'5 9.5
2018-Feb-17 00:00N 22°33' E 120°13'510.9
2018-Feb-16 23:30N 22°27' E 120°14'610.7
2018-Feb-16 22:59N 22°22' E 120°15'510.8
2018-Feb-16 22:30N 22°17' E 120°17'611.1
2018-Feb-16 21:57N 22°12' E 120°20'  
Track history (hours):
 
Tides and Currents Weather Stations Pressure Air Temp Water Temp Dewpoint Dewpoint Depression Visibility Wind Speed Wind Dir Waves Ship Positions

Arikun

Last reported at 2018-Feb-18 05:19 UTC. Time now 2018-Feb-22 21:08 UTC.
Position N 25°32' E 121°04'.

Length 112 m; draft 5.1 m.

Type: Cargo ship. MMSI: 372870000.

Date/timePositionNaut miles runAvg speedWind from/ knotsBaromVisibWave heightAir tempDewpointWater temp
2018-Feb-18 05:19N 25°32' E 121°04'410.4
2018-Feb-18 04:57N 25°30' E 121°00'6 9.4
2018-Feb-18 04:21N 25°25' E 120°57'3 9.4
2018-Feb-18 04:00N 25°22' E 120°55'120 8.8
2018-Feb-17 14:21N 23°35' E 119°54'610.8
2018-Feb-17 13:47N 23°29' E 119°53'412.2
2018-Feb-17 13:28N 23°26' E 119°53'2311.8
2018-Feb-17 11:34N 23°04' E 119°58'112.6
2018-Feb-17 11:29N 23°03' E 119°58'612.1
2018-Feb-17 11:00N 22°57' E 120°01'611.3
2018-Feb-17 10:30N 22°52' E 120°04'711.1
2018-Feb-17 09:55N 22°47' E 120°08'410.7
2018-Feb-17 09:30N 22°43' E 120°10'510.7
2018-Feb-17 09:00N 22°38' E 120°13'4 8.6
2018-Feb-17 08:31N 22°37' E 120°17'0 0.5
2018-Feb-17 08:00N 22°36' E 120°17'0 0.0
2018-Feb-17 07:30N 22°36' E 120°17'0 0.0
2018-Feb-17 07:00N 22°36' E 120°17'0 0.0
2018-Feb-17 06:30N 22°36' E 120°17'0 0.0
2018-Feb-17 06:00N 22°36' E 120°17'0 0.0
2018-Feb-17 05:30N 22°36' E 120°17'0 0.0
2018-Feb-17 05:00N 22°36' E 120°17'0 0.0
2018-Feb-17 04:30N 22°36' E 120°17'0 0.0
2018-Feb-17 04:00N 22°36' E 120°17'0 0.0
2018-Feb-17 03:30N 22°36' E 120°17'0 0.0
2018-Feb-17 03:01N 22°36' E 120°17'0 0.0
2018-Feb-17 02:30N 22°36' E 120°17'0 0.0
2018-Feb-17 02:00N 22°36' E 120°17'0 0.3
2018-Feb-17 01:30N 22°36' E 120°17'3 5.3
2018-Feb-17 01:00N 22°37' E 120°14'1 2.7
2018-Feb-17 00:30N 22°37' E 120°13'5 9.5
2018-Feb-17 00:00N 22°33' E 120°13'510.9
2018-Feb-16 23:30N 22°27' E 120°14'610.7
2018-Feb-16 22:59N 22°22' E 120°15'510.8
2018-Feb-16 22:30N 22°17' E 120°17'611.1
2018-Feb-16 21:57N 22°12' E 120°20'  

Dump ship's entire track history